sensor_id;sensor_type;location;lat;lon;timestamp;temperature;humidity
19359;DHT22;9815;52.334;20.890;2023-04-10T00:01:24;6.10;99.90
19359;DHT22;9815;52.334;20.890;2023-04-10T00:03:52;6.10;99.90
19359;DHT22;9815;52.334;20.890;2023-04-10T00:06:21;6.10;99.90
19359;DHT22;9815;52.334;20.890;2023-04-10T00:08:49;6.10;99.90
19359;DHT22;9815;52.334;20.890;2023-04-10T00:11:18;6.00;99.90
19359;DHT22;9815;52.334;20.890;2023-04-10T00:13:46;6.00;99.90
19359;DHT22;9815;52.334;20.890;2023-04-10T00:16:14;5.90;99.90
19359;DHT22;9815;52.334;20.890;2023-04-10T00:18:42;5.90;99.90
19359;DHT22;9815;52.334;20.890;2023-04-10T00:21:10;5.90;99.90
19359;DHT22;9815;52.334;20.890;2023-04-10T00:23:38;5.90;99.90
19359;DHT22;9815;52.334;20.890;2023-04-10T00:26:06;5.90;99.90
19359;DHT22;9815;52.334;20.890;2023-04-10T00:28:37;5.80;99.90
19359;DHT22;9815;52.334;20.890;2023-04-10T00:31:05;5.80;99.90
19359;DHT22;9815;52.334;20.890;2023-04-10T00:33:33;5.80;99.90
19359;DHT22;9815;52.334;20.890;2023-04-10T00:36:01;5.80;99.90
19359;DHT22;9815;52.334;20.890;2023-04-10T00:38:29;5.70;99.90
19359;DHT22;9815;52.334;20.890;2023-04-10T00:40:57;5.80;99.90
19359;DHT22;9815;52.334;20.890;2023-04-10T00:43:25;5.80;99.90
19359;DHT22;9815;52.334;20.890;2023-04-10T00:45:54;5.80;99.90
19359;DHT22;9815;52.334;20.890;2023-04-10T00:48:23;5.80;99.90
19359;DHT22;9815;52.334;20.890;2023-04-10T00:50:51;5.80;99.90
19359;DHT22;9815;52.334;20.890;2023-04-10T00:53:19;5.80;99.90
19359;DHT22;9815;52.334;20.890;2023-04-10T00:55:48;5.80;99.90
19359;DHT22;9815;52.334;20.890;2023-04-10T00:58:17;5.70;99.90
19359;DHT22;9815;52.334;20.890;2023-04-10T01:00:46;5.70;99.90
19359;DHT22;9815;52.334;20.890;2023-04-10T01:03:17;5.60;99.90
19359;DHT22;9815;52.334;20.890;2023-04-10T01:05:51;5.70;99.90
19359;DHT22;9815;52.334;20.890;2023-04-10T01:08:27;5.70;99.90
19359;DHT22;9815;52.334;20.890;2023-04-10T01:11:02;5.60;99.90
19359;DHT22;9815;52.334;20.890;2023-04-10T01:13:35;5.50;99.90
19359;DHT22;9815;52.334;20.890;2023-04-10T01:16:10;5.40;99.90
19359;DHT22;9815;52.334;20.890;2023-04-10T01:18:49;5.30;99.90
19359;DHT22;9815;52.334;20.890;2023-04-10T01:21:20;5.30;99.90
19359;DHT22;9815;52.334;20.890;2023-04-10T01:24:04;5.30;99.90
19359;DHT22;9815;52.334;20.890;2023-04-10T01:26:48;5.20;99.90
19359;DHT22;9815;52.334;20.890;2023-04-10T01:29:22;5.20;99.90
19359;DHT22;9815;52.334;20.890;2023-04-10T01:31:57;5.20;99.90
19359;DHT22;9815;52.334;20.890;2023-04-10T01:34:32;5.20;99.90
19359;DHT22;9815;52.334;20.890;2023-04-10T01:37:03;5.20;99.90
19359;DHT22;9815;52.334;20.890;2023-04-10T01:39:35;5.20;99.90
19359;DHT22;9815;52.334;20.890;2023-04-10T01:42:05;5.20;99.90
19359;DHT22;9815;52.334;20.890;2023-04-10T01:44:43;5.20;99.90
19359;DHT22;9815;52.334;20.890;2023-04-10T01:47:13;5.20;99.90
19359;DHT22;9815;52.334;20.890;2023-04-10T01:49:43;5.10;99.90
19359;DHT22;9815;52.334;20.890;2023-04-10T01:52:13;5.10;99.90
19359;DHT22;9815;52.334;20.890;2023-04-10T01:54:47;5.10;99.90
19359;DHT22;9815;52.334;20.890;2023-04-10T01:57:22;5.00;99.90
19359;DHT22;9815;52.334;20.890;2023-04-10T01:59:54;5.00;99.90
19359;DHT22;9815;52.334;20.890;2023-04-10T02:02:22;5.00;99.90
19359;DHT22;9815;52.334;20.890;2023-04-10T02:04:51;5.00;99.90
19359;DHT22;9815;52.334;20.890;2023-04-10T02:07:24;5.00;99.90
19359;DHT22;9815;52.334;20.890;2023-04-10T02:09:59;5.00;99.90
19359;DHT22;9815;52.334;20.890;2023-04-10T02:12:30;4.90;99.90
19359;DHT22;9815;52.334;20.890;2023-04-10T02:15:03;4.90;99.90
19359;DHT22;9815;52.334;20.890;2023-04-10T02:17:32;4.90;99.90
19359;DHT22;9815;52.334;20.890;2023-04-10T02:20:02;4.90;99.90
19359;DHT22;9815;52.334;20.890;2023-04-10T02:22:31;4.90;99.90
19359;DHT22;9815;52.334;20.890;2023-04-10T02:25:03;4.80;99.90
19359;DHT22;9815;52.334;20.890;2023-04-10T02:27:33;4.70;99.90
19359;DHT22;9815;52.334;20.890;2023-04-10T02:30:03;4.70;99.90
19359;DHT22;9815;52.334;20.890;2023-04-10T02:32:33;4.60;99.90
19359;DHT22;9815;52.334;20.890;2023-04-10T02:35:03;4.60;99.90
19359;DHT22;9815;52.334;20.890;2023-04-10T02:37:31;4.60;99.90
19359;DHT22;9815;52.334;20.890;2023-04-10T02:40:02;4.60;99.90
19359;DHT22;9815;52.334;20.890;2023-04-10T02:42:39;4.60;99.90
19359;DHT22;9815;52.334;20.890;2023-04-10T02:45:09;4.60;99.90
19359;DHT22;9815;52.334;20.890;2023-04-10T02:47:40;4.70;99.90
19359;DHT22;9815;52.334;20.890;2023-04-10T02:50:09;4.60;99.90
19359;DHT22;9815;52.334;20.890;2023-04-10T02:52:41;4.60;99.90
19359;DHT22;9815;52.334;20.890;2023-04-10T02:55:09;4.60;99.90
19359;DHT22;9815;52.334;20.890;2023-04-10T02:57:39;4.50;99.90
19359;DHT22;9815;52.334;20.890;2023-04-10T03:00:10;4.50;99.90
19359;DHT22;9815;52.334;20.890;2023-04-10T03:03:17;4.50;99.90
19359;DHT22;9815;52.334;20.890;2023-04-10T03:05:53;4.40;99.90
19359;DHT22;9815;52.334;20.890;2023-04-10T03:08:30;4.40;99.90
19359;DHT22;9815;52.334;20.890;2023-04-10T03:10:58;4.40;99.90
19359;DHT22;9815;52.334;20.890;2023-04-10T03:13:27;4.40;99.90
19359;DHT22;9815;52.334;20.890;2023-04-10T03:15:56;4.40;99.90
19359;DHT22;9815;52.334;20.890;2023-04-10T03:18:25;4.40;99.90
19359;DHT22;9815;52.334;20.890;2023-04-10T03:20:54;4.40;99.90
19359;DHT22;9815;52.334;20.890;2023-04-10T03:23:22;4.30;99.90
19359;DHT22;9815;52.334;20.890;2023-04-10T03:25:50;4.30;99.90
19359;DHT22;9815;52.334;20.890;2023-04-10T03:28:22;4.30;99.90
19359;DHT22;9815;52.334;20.890;2023-04-10T03:30:50;4.30;99.90
19359;DHT22;9815;52.334;20.890;2023-04-10T03:33:20;4.20;99.90
19359;DHT22;9815;52.334;20.890;2023-04-10T03:35:48;4.20;99.90
19359;DHT22;9815;52.334;20.890;2023-04-10T03:38:16;4.20;99.90
19359;DHT22;9815;52.334;20.890;2023-04-10T03:40:44;4.20;99.90
19359;DHT22;9815;52.334;20.890;2023-04-10T03:43:12;4.30;99.90
19359;DHT22;9815;52.334;20.890;2023-04-10T03:45:40;4.30;99.90
19359;DHT22;9815;52.334;20.890;2023-04-10T03:48:08;4.30;99.90
19359;DHT22;9815;52.334;20.890;2023-04-10T03:50:42;4.30;99.90
19359;DHT22;9815;52.334;20.890;2023-04-10T03:53:10;4.30;99.90
19359;DHT22;9815;52.334;20.890;2023-04-10T03:55:38;4.20;99.90
19359;DHT22;9815;52.334;20.890;2023-04-10T03:58:06;4.20;99.90
19359;DHT22;9815;52.334;20.890;2023-04-10T04:00:36;4.20;99.90
19359;DHT22;9815;52.334;20.890;2023-04-10T04:03:13;4.20;99.90
19359;DHT22;9815;52.334;20.890;2023-04-10T04:06:02;4.20;99.90
19359;DHT22;9815;52.334;20.890;2023-04-10T04:08:39;4.10;99.90
19359;DHT22;9815;52.334;20.890;2023-04-10T04:11:30;4.20;99.90
19359;DHT22;9815;52.334;20.890;2023-04-10T04:14:05;4.20;99.90
19359;DHT22;9815;52.334;20.890;2023-04-10T04:16:47;4.20;99.90
19359;DHT22;9815;52.334;20.890;2023-04-10T04:19:34;4.20;99.90
19359;DHT22;9815;52.334;20.890;2023-04-10T04:22:09;4.30;99.90
19359;DHT22;9815;52.334;20.890;2023-04-10T04:24:55;4.30;99.90
19359;DHT22;9815;52.334;20.890;2023-04-10T04:27:50;4.30;99.90
19359;DHT22;9815;52.334;20.890;2023-04-10T04:30:38;4.40;99.90
19359;DHT22;9815;52.334;20.890;2023-04-10T04:33:26;4.40;99.90
19359;DHT22;9815;52.334;20.890;2023-04-10T04:36:17;4.50;99.90
19359;DHT22;9815;52.334;20.890;2023-04-10T04:39:19;4.40;99.90
19359;DHT22;9815;52.334;20.890;2023-04-10T04:42:06;4.50;99.90
19359;DHT22;9815;52.334;20.890;2023-04-10T04:45:02;4.50;99.90
19359;DHT22;9815;52.334;20.890;2023-04-10T04:47:56;4.60;99.90
19359;DHT22;9815;52.334;20.890;2023-04-10T04:50:39;4.70;99.90
19359;DHT22;9815;52.334;20.890;2023-04-10T04:53:27;4.70;99.90
19359;DHT22;9815;52.334;20.890;2023-04-10T04:56:07;4.80;99.90
19359;DHT22;9815;52.334;20.890;2023-04-10T04:58:45;4.90;99.90
19359;DHT22;9815;52.334;20.890;2023-04-10T05:01:31;5.10;99.90
19359;DHT22;9815;52.334;20.890;2023-04-10T05:04:10;5.10;99.90
19359;DHT22;9815;52.334;20.890;2023-04-10T05:06:57;5.30;99.90
19359;DHT22;9815;52.334;20.890;2023-04-10T05:09:37;5.50;99.90
19359;DHT22;9815;52.334;20.890;2023-04-10T05:12:24;5.60;99.90
19359;DHT22;9815;52.334;20.890;2023-04-10T05:15:02;5.70;99.90
19359;DHT22;9815;52.334;20.890;2023-04-10T05:17:43;5.80;99.90
19359;DHT22;9815;52.334;20.890;2023-04-10T05:20:30;5.90;99.90
19359;DHT22;9815;52.334;20.890;2023-04-10T05:23:08;6.00;99.90
19359;DHT22;9815;52.334;20.890;2023-04-10T05:26:15;6.10;99.90
19359;DHT22;9815;52.334;20.890;2023-04-10T05:28:51;6.30;99.90
19359;DHT22;9815;52.334;20.890;2023-04-10T05:31:38;6.40;99.90
19359;DHT22;9815;52.334;20.890;2023-04-10T05:34:11;6.60;99.90
19359;DHT22;9815;52.334;20.890;2023-04-10T05:37:08;6.80;99.90
19359;DHT22;9815;52.334;20.890;2023-04-10T05:39:54;7.00;99.90
19359;DHT22;9815;52.334;20.890;2023-04-10T05:42:40;7.00;99.90
19359;DHT22;9815;52.334;20.890;2023-04-10T05:45:36;7.10;99.90
19359;DHT22;9815;52.334;20.890;2023-04-10T05:48:27;7.10;99.90
19359;DHT22;9815;52.334;20.890;2023-04-10T05:51:13;7.20;99.90
19359;DHT22;9815;52.334;20.890;2023-04-10T05:54:04;7.30;99.90
19359;DHT22;9815;52.334;20.890;2023-04-10T05:57:02;7.40;99.90
19359;DHT22;9815;52.334;20.890;2023-04-10T05:59:57;7.40;99.90
19359;DHT22;9815;52.334;20.890;2023-04-10T06:02:40;7.50;99.90
19359;DHT22;9815;52.334;20.890;2023-04-10T06:05:18;7.70;99.90
19359;DHT22;9815;52.334;20.890;2023-04-10T06:07:47;7.80;99.90
19359;DHT22;9815;52.334;20.890;2023-04-10T06:10:14;7.90;99.90
19359;DHT22;9815;52.334;20.890;2023-04-10T06:12:43;8.00;99.90
19359;DHT22;9815;52.334;20.890;2023-04-10T06:15:12;8.10;99.90
19359;DHT22;9815;52.334;20.890;2023-04-10T06:17:42;8.20;99.90
19359;DHT22;9815;52.334;20.890;2023-04-10T06:20:11;8.30;99.90
19359;DHT22;9815;52.334;20.890;2023-04-10T06:22:39;8.50;99.90
19359;DHT22;9815;52.334;20.890;2023-04-10T06:25:08;8.80;99.90
19359;DHT22;9815;52.334;20.890;2023-04-10T06:27:36;9.00;99.90
19359;DHT22;9815;52.334;20.890;2023-04-10T06:30:09;9.30;99.90
19359;DHT22;9815;52.334;20.890;2023-04-10T06:32:37;9.40;99.90
19359;DHT22;9815;52.334;20.890;2023-04-10T06:35:07;9.50;99.90
19359;DHT22;9815;52.334;20.890;2023-04-10T06:37:36;9.50;99.90
19359;DHT22;9815;52.334;20.890;2023-04-10T06:40:05;9.60;99.90
19359;DHT22;9815;52.334;20.890;2023-04-10T06:42:34;9.80;99.90
19359;DHT22;9815;52.334;20.890;2023-04-10T06:45:10;9.90;99.90
19359;DHT22;9815;52.334;20.890;2023-04-10T06:47:38;10.10;99.90
19359;DHT22;9815;52.334;20.890;2023-04-10T06:50:08;10.20;99.90
19359;DHT22;9815;52.334;20.890;2023-04-10T06:52:36;10.30;99.90
19359;DHT22;9815;52.334;20.890;2023-04-10T06:55:05;10.50;99.90
19359;DHT22;9815;52.334;20.890;2023-04-10T06:57:33;10.60;99.90
19359;DHT22;9815;52.334;20.890;2023-04-10T07:00:02;10.70;99.90
19359;DHT22;9815;52.334;20.890;2023-04-10T07:02:30;10.70;99.90
19359;DHT22;9815;52.334;20.890;2023-04-10T07:04:58;10.90;99.90
19359;DHT22;9815;52.334;20.890;2023-04-10T07:07:27;11.00;99.90
19359;DHT22;9815;52.334;20.890;2023-04-10T07:09:55;11.10;99.90
19359;DHT22;9815;52.334;20.890;2023-04-10T07:12:24;11.40;99.90
19359;DHT22;9815;52.334;20.890;2023-04-10T07:14:52;11.50;99.90
19359;DHT22;9815;52.334;20.890;2023-04-10T07:17:21;11.60;99.90
19359;DHT22;9815;52.334;20.890;2023-04-10T07:19:49;11.70;99.90
19359;DHT22;9815;52.334;20.890;2023-04-10T07:22:17;11.80;99.90
19359;DHT22;9815;52.334;20.890;2023-04-10T07:24:46;11.90;99.90
19359;DHT22;9815;52.334;20.890;2023-04-10T07:27:15;12.10;99.90
19359;DHT22;9815;52.334;20.890;2023-04-10T07:29:43;12.40;99.90
19359;DHT22;9815;52.334;20.890;2023-04-10T07:32:11;12.60;99.90
19359;DHT22;9815;52.334;20.890;2023-04-10T07:34:40;12.70;99.90
19359;DHT22;9815;52.334;20.890;2023-04-10T07:37:08;12.90;99.90
19359;DHT22;9815;52.334;20.890;2023-04-10T07:39:37;13.00;99.90
19359;DHT22;9815;52.334;20.890;2023-04-10T07:42:06;12.80;99.90
19359;DHT22;9815;52.334;20.890;2023-04-10T07:44:34;12.80;99.90
19359;DHT22;9815;52.334;20.890;2023-04-10T07:47:02;13.10;99.90
19359;DHT22;9815;52.334;20.890;2023-04-10T07:49:30;13.40;99.90
19359;DHT22;9815;52.334;20.890;2023-04-10T07:51:58;13.50;99.90
19359;DHT22;9815;52.334;20.890;2023-04-10T07:54:26;13.40;99.90
19359;DHT22;9815;52.334;20.890;2023-04-10T07:56:54;13.40;99.90
19359;DHT22;9815;52.334;20.890;2023-04-10T07:59:23;13.40;99.90
19359;DHT22;9815;52.334;20.890;2023-04-10T08:01:52;13.40;99.90
19359;DHT22;9815;52.334;20.890;2023-04-10T08:04:20;13.70;99.90
19359;DHT22;9815;52.334;20.890;2023-04-10T08:06:48;13.90;99.90
19359;DHT22;9815;52.334;20.890;2023-04-10T08:09:17;14.00;99.90
19359;DHT22;9815;52.334;20.890;2023-04-10T08:11:45;14.20;99.90
19359;DHT22;9815;52.334;20.890;2023-04-10T08:14:13;14.00;99.90
19359;DHT22;9815;52.334;20.890;2023-04-10T08:16:45;14.00;99.90
19359;DHT22;9815;52.334;20.890;2023-04-10T08:19:13;14.20;99.90
19359;DHT22;9815;52.334;20.890;2023-04-10T08:21:41;14.30;99.90
19359;DHT22;9815;52.334;20.890;2023-04-10T08:24:09;14.30;99.90
19359;DHT22;9815;52.334;20.890;2023-04-10T08:26:37;14.30;99.90
19359;DHT22;9815;52.334;20.890;2023-04-10T08:29:05;14.40;99.90
19359;DHT22;9815;52.334;20.890;2023-04-10T08:31:33;14.50;99.90
19359;DHT22;9815;52.334;20.890;2023-04-10T08:34:03;14.60;99.90
19359;DHT22;9815;52.334;20.890;2023-04-10T08:36:31;14.80;99.90
19359;DHT22;9815;52.334;20.890;2023-04-10T08:38:59;15.00;99.90
19359;DHT22;9815;52.334;20.890;2023-04-10T08:41:27;14.90;99.90
19359;DHT22;9815;52.334;20.890;2023-04-10T08:43:56;15.00;99.90
19359;DHT22;9815;52.334;20.890;2023-04-10T08:46:24;15.20;99.90
19359;DHT22;9815;52.334;20.890;2023-04-10T08:48:56;15.20;99.90
19359;DHT22;9815;52.334;20.890;2023-04-10T08:51:30;15.20;99.90
19359;DHT22;9815;52.334;20.890;2023-04-10T08:54:04;15.00;99.90
19359;DHT22;9815;52.334;20.890;2023-04-10T08:56:34;14.90;99.90
19359;DHT22;9815;52.334;20.890;2023-04-10T08:59:03;15.40;99.90
19359;DHT22;9815;52.334;20.890;2023-04-10T09:01:31;15.50;99.90
19359;DHT22;9815;52.334;20.890;2023-04-10T09:04:00;15.70;99.90
19359;DHT22;9815;52.334;20.890;2023-04-10T09:06:30;16.20;99.90
19359;DHT22;9815;52.334;20.890;2023-04-10T09:08:58;16.10;99.90
19359;DHT22;9815;52.334;20.890;2023-04-10T09:11:58;16.60;95.00
19359;DHT22;9815;52.334;20.890;2023-04-10T09:14:30;16.50;99.90
19359;DHT22;9815;52.334;20.890;2023-04-10T09:17:11;16.50;90.90
19359;DHT22;9815;52.334;20.890;2023-04-10T09:19:40;16.90;96.30
19359;DHT22;9815;52.334;20.890;2023-04-10T09:22:09;16.80;87.90
19359;DHT22;9815;52.334;20.890;2023-04-10T09:24:38;16.70;92.50
19359;DHT22;9815;52.334;20.890;2023-04-10T09:27:07;16.80;82.50
19359;DHT22;9815;52.334;20.890;2023-04-10T09:29:42;16.50;90.50
19359;DHT22;9815;52.334;20.890;2023-04-10T09:32:11;16.70;84.80
19359;DHT22;9815;52.334;20.890;2023-04-10T09:34:51;17.00;84.10
19359;DHT22;9815;52.334;20.890;2023-04-10T09:37:22;17.70;75.50
19359;DHT22;9815;52.334;20.890;2023-04-10T09:39:57;17.00;67.60
19359;DHT22;9815;52.334;20.890;2023-04-10T09:42:30;17.00;63.30
19359;DHT22;9815;52.334;20.890;2023-04-10T09:44:59;17.30;72.60
19359;DHT22;9815;52.334;20.890;2023-04-10T09:47:28;17.70;74.70
19359;DHT22;9815;52.334;20.890;2023-04-10T09:49:57;17.80;61.10
19359;DHT22;9815;52.334;20.890;2023-04-10T09:52:28;17.70;63.20
19359;DHT22;9815;52.334;20.890;2023-04-10T09:54:58;17.50;59.70
19359;DHT22;9815;52.334;20.890;2023-04-10T09:57:29;17.50;63.20
19359;DHT22;9815;52.334;20.890;2023-04-10T09:59:58;17.90;59.60
19359;DHT22;9815;52.334;20.890;2023-04-10T10:02:35;17.80;54.50
19359;DHT22;9815;52.334;20.890;2023-04-10T10:05:05;17.80;55.50
19359;DHT22;9815;52.334;20.890;2023-04-10T10:07:37;17.90;56.10
19359;DHT22;9815;52.334;20.890;2023-04-10T10:10:06;17.70;49.60
19359;DHT22;9815;52.334;20.890;2023-04-10T10:12:39;17.70;51.70
19359;DHT22;9815;52.334;20.890;2023-04-10T10:15:13;17.70;51.90
19359;DHT22;9815;52.334;20.890;2023-04-10T10:17:46;17.90;49.50
19359;DHT22;9815;52.334;20.890;2023-04-10T10:20:19;18.10;46.10
19359;DHT22;9815;52.334;20.890;2023-04-10T10:22:50;18.60;48.50
19359;DHT22;9815;52.334;20.890;2023-04-10T10:25:19;18.30;47.20
19359;DHT22;9815;52.334;20.890;2023-04-10T10:27:49;18.50;48.90
19359;DHT22;9815;52.334;20.890;2023-04-10T10:30:19;18.80;45.40
19359;DHT22;9815;52.334;20.890;2023-04-10T10:32:57;19.20;43.10
19359;DHT22;9815;52.334;20.890;2023-04-10T10:35:26;19.20;43.30
19359;DHT22;9815;52.334;20.890;2023-04-10T10:37:57;19.30;40.10
19359;DHT22;9815;52.334;20.890;2023-04-10T10:40:30;19.30;42.40
19359;DHT22;9815;52.334;20.890;2023-04-10T10:43:06;19.40;42.50
19359;DHT22;9815;52.334;20.890;2023-04-10T10:45:40;19.50;41.90
19359;DHT22;9815;52.334;20.890;2023-04-10T10:48:10;19.20;43.00
19359;DHT22;9815;52.334;20.890;2023-04-10T10:50:53;18.80;44.10
19359;DHT22;9815;52.334;20.890;2023-04-10T10:53:35;18.20;48.60
19359;DHT22;9815;52.334;20.890;2023-04-10T10:56:32;17.70;55.40
19359;DHT22;9815;52.334;20.890;2023-04-10T10:59:00;17.00;58.90
19359;DHT22;9815;52.334;20.890;2023-04-10T11:01:29;16.80;53.00
19359;DHT22;9815;52.334;20.890;2023-04-10T11:03:57;16.70;51.60
19359;DHT22;9815;52.334;20.890;2023-04-10T11:06:49;16.80;49.70
19359;DHT22;9815;52.334;20.890;2023-04-10T11:09:47;17.10;45.10
19359;DHT22;9815;52.334;20.890;2023-04-10T11:12:18;18.00;44.60
19359;DHT22;9815;52.334;20.890;2023-04-10T11:14:56;18.70;44.60
19359;DHT22;9815;52.334;20.890;2023-04-10T11:17:47;19.10;39.80
19359;DHT22;9815;52.334;20.890;2023-04-10T11:20:17;19.20;39.10
19359;DHT22;9815;52.334;20.890;2023-04-10T11:23:05;19.70;36.70
19359;DHT22;9815;52.334;20.890;2023-04-10T11:25:48;19.80;35.40
19359;DHT22;9815;52.334;20.890;2023-04-10T11:28:36;19.80;36.50
19359;DHT22;9815;52.334;20.890;2023-04-10T11:31:15;19.70;37.70
19359;DHT22;9815;52.334;20.890;2023-04-10T11:33:45;19.30;36.40
19359;DHT22;9815;52.334;20.890;2023-04-10T11:36:14;18.40;39.70
19359;DHT22;9815;52.334;20.890;2023-04-10T11:38:54;17.80;40.20
19359;DHT22;9815;52.334;20.890;2023-04-10T11:41:27;17.50;42.50
19359;DHT22;9815;52.334;20.890;2023-04-10T11:43:57;17.80;45.00
19359;DHT22;9815;52.334;20.890;2023-04-10T11:46:25;18.40;41.90
19359;DHT22;9815;52.334;20.890;2023-04-10T11:48:54;18.90;42.50
19359;DHT22;9815;52.334;20.890;2023-04-10T11:51:22;19.40;37.80
19359;DHT22;9815;52.334;20.890;2023-04-10T11:54:04;19.60;35.50
19359;DHT22;9815;52.334;20.890;2023-04-10T11:56:34;19.50;34.90
19359;DHT22;9815;52.334;20.890;2023-04-10T11:59:02;19.70;37.80
19359;DHT22;9815;52.334;20.890;2023-04-10T12:01:33;19.70;36.20
19359;DHT22;9815;52.334;20.890;2023-04-10T12:04:01;19.90;35.90
19359;DHT22;9815;52.334;20.890;2023-04-10T12:06:29;20.10;36.70
19359;DHT22;9815;52.334;20.890;2023-04-10T12:08:58;19.80;35.60
19359;DHT22;9815;52.334;20.890;2023-04-10T12:11:26;19.70;36.40
19359;DHT22;9815;52.334;20.890;2023-04-10T12:13:56;20.30;35.40
19359;DHT22;9815;52.334;20.890;2023-04-10T12:16:24;20.10;33.30
19359;DHT22;9815;52.334;20.890;2023-04-10T12:18:53;19.40;34.10
19359;DHT22;9815;52.334;20.890;2023-04-10T12:21:22;19.10;35.90
19359;DHT22;9815;52.334;20.890;2023-04-10T12:23:50;19.70;34.20
19359;DHT22;9815;52.334;20.890;2023-04-10T12:26:19;19.50;32.30
19359;DHT22;9815;52.334;20.890;2023-04-10T12:28:51;20.20;32.00
19359;DHT22;9815;52.334;20.890;2023-04-10T12:31:31;20.50;32.50
19359;DHT22;9815;52.334;20.890;2023-04-10T12:34:00;20.50;32.60
19359;DHT22;9815;52.334;20.890;2023-04-10T12:36:30;19.80;34.00
19359;DHT22;9815;52.334;20.890;2023-04-10T12:39:01;19.70;34.10
19359;DHT22;9815;52.334;20.890;2023-04-10T12:41:30;20.20;34.10
19359;DHT22;9815;52.334;20.890;2023-04-10T12:44:09;20.60;33.20
19359;DHT22;9815;52.334;20.890;2023-04-10T12:46:39;20.30;33.80
19359;DHT22;9815;52.334;20.890;2023-04-10T12:49:09;20.50;34.30
19359;DHT22;9815;52.334;20.890;2023-04-10T12:51:44;20.60;33.10
19359;DHT22;9815;52.334;20.890;2023-04-10T12:54:26;20.30;31.70
19359;DHT22;9815;52.334;20.890;2023-04-10T12:56:54;20.30;32.70
19359;DHT22;9815;52.334;20.890;2023-04-10T12:59:23;20.50;29.40
19359;DHT22;9815;52.334;20.890;2023-04-10T13:01:53;20.40;29.70
19359;DHT22;9815;52.334;20.890;2023-04-10T13:04:22;19.90;30.50
19359;DHT22;9815;52.334;20.890;2023-04-10T13:06:50;20.10;29.90
19359;DHT22;9815;52.334;20.890;2023-04-10T13:09:19;19.90;31.10
19359;DHT22;9815;52.334;20.890;2023-04-10T13:11:48;19.60;31.10
19359;DHT22;9815;52.334;20.890;2023-04-10T13:14:18;20.20;30.00
19359;DHT22;9815;52.334;20.890;2023-04-10T13:16:46;20.30;30.20
19359;DHT22;9815;52.334;20.890;2023-04-10T13:19:15;20.60;30.50
19359;DHT22;9815;52.334;20.890;2023-04-10T13:21:43;20.80;29.90
19359;DHT22;9815;52.334;20.890;2023-04-10T13:24:11;21.00;31.10
19359;DHT22;9815;52.334;20.890;2023-04-10T13:26:42;21.00;29.70
19359;DHT22;9815;52.334;20.890;2023-04-10T13:29:10;20.60;30.50
19359;DHT22;9815;52.334;20.890;2023-04-10T13:31:38;20.20;30.40
19359;DHT22;9815;52.334;20.890;2023-04-10T13:34:06;19.60;32.00
19359;DHT22;9815;52.334;20.890;2023-04-10T13:36:36;19.00;34.80
19359;DHT22;9815;52.334;20.890;2023-04-10T13:39:04;18.60;36.80
19359;DHT22;9815;52.334;20.890;2023-04-10T13:41:32;18.30;36.70
19359;DHT22;9815;52.334;20.890;2023-04-10T13:44:00;18.20;38.00
19359;DHT22;9815;52.334;20.890;2023-04-10T13:46:28;18.30;37.40
19359;DHT22;9815;52.334;20.890;2023-04-10T13:48:56;18.10;38.70
19359;DHT22;9815;52.334;20.890;2023-04-10T13:51:25;17.90;40.40
19359;DHT22;9815;52.334;20.890;2023-04-10T13:53:54;17.70;37.20
19359;DHT22;9815;52.334;20.890;2023-04-10T13:56:22;17.60;37.40
19359;DHT22;9815;52.334;20.890;2023-04-10T13:58:51;17.50;37.60
19359;DHT22;9815;52.334;20.890;2023-04-10T14:01:19;17.40;36.90
19359;DHT22;9815;52.334;20.890;2023-04-10T14:03:47;17.30;37.60
19359;DHT22;9815;52.334;20.890;2023-04-10T14:06:15;17.20;38.20
19359;DHT22;9815;52.334;20.890;2023-04-10T14:08:43;17.30;40.30
19359;DHT22;9815;52.334;20.890;2023-04-10T14:11:13;17.30;39.00
19359;DHT22;9815;52.334;20.890;2023-04-10T14:13:41;17.30;38.80
19359;DHT22;9815;52.334;20.890;2023-04-10T14:16:09;17.60;38.10
19359;DHT22;9815;52.334;20.890;2023-04-10T14:18:37;18.00;38.50
19359;DHT22;9815;52.334;20.890;2023-04-10T14:21:06;18.70;35.80
19359;DHT22;9815;52.334;20.890;2023-04-10T14:23:34;18.90;34.60
19359;DHT22;9815;52.334;20.890;2023-04-10T14:26:03;18.60;34.70
19359;DHT22;9815;52.334;20.890;2023-04-10T14:28:33;18.10;35.20
19359;DHT22;9815;52.334;20.890;2023-04-10T14:31:01;17.80;36.30
19359;DHT22;9815;52.334;20.890;2023-04-10T14:33:29;17.80;36.40
19359;DHT22;9815;52.334;20.890;2023-04-10T14:35:57;17.60;37.00
19359;DHT22;9815;52.334;20.890;2023-04-10T14:38:25;17.40;37.00
19359;DHT22;9815;52.334;20.890;2023-04-10T14:40:53;17.20;37.80
19359;DHT22;9815;52.334;20.890;2023-04-10T14:43:21;17.20;38.30
19359;DHT22;9815;52.334;20.890;2023-04-10T14:45:50;17.30;38.10
19359;DHT22;9815;52.334;20.890;2023-04-10T14:48:18;17.50;40.40
19359;DHT22;9815;52.334;20.890;2023-04-10T14:50:47;17.60;40.10
19359;DHT22;9815;52.334;20.890;2023-04-10T14:53:15;17.80;39.80
19359;DHT22;9815;52.334;20.890;2023-04-10T14:55:43;17.50;38.80
19359;DHT22;9815;52.334;20.890;2023-04-10T14:58:11;17.40;38.50
19359;DHT22;9815;52.334;20.890;2023-04-10T15:00:39;17.10;39.00
19359;DHT22;9815;52.334;20.890;2023-04-10T15:03:09;17.20;39.90
19359;DHT22;9815;52.334;20.890;2023-04-10T15:05:37;17.20;38.70
19359;DHT22;9815;52.334;20.890;2023-04-10T15:08:05;17.00;38.60
19359;DHT22;9815;52.334;20.890;2023-04-10T15:10:33;17.00;37.90
19359;DHT22;9815;52.334;20.890;2023-04-10T15:13:01;16.80;39.00
19359;DHT22;9815;52.334;20.890;2023-04-10T15:15:29;16.80;39.80
19359;DHT22;9815;52.334;20.890;2023-04-10T15:17:57;16.80;40.20
19359;DHT22;9815;52.334;20.890;2023-04-10T15:20:26;16.50;41.00
19359;DHT22;9815;52.334;20.890;2023-04-10T15:22:56;16.30;42.80
19359;DHT22;9815;52.334;20.890;2023-04-10T15:25:24;16.30;43.00
19359;DHT22;9815;52.334;20.890;2023-04-10T15:27:53;16.30;43.00
19359;DHT22;9815;52.334;20.890;2023-04-10T15:30:21;16.00;44.20
19359;DHT22;9815;52.334;20.890;2023-04-10T15:32:50;15.90;46.00
19359;DHT22;9815;52.334;20.890;2023-04-10T15:35:18;15.90;45.80
19359;DHT22;9815;52.334;20.890;2023-04-10T15:37:47;15.80;48.40
19359;DHT22;9815;52.334;20.890;2023-04-10T15:40:17;15.90;49.20
19359;DHT22;9815;52.334;20.890;2023-04-10T15:43:20;15.90;48.10
19359;DHT22;9815;52.334;20.890;2023-04-10T15:46:12;15.90;48.20
19359;DHT22;9815;52.334;20.890;2023-04-10T15:48:42;16.00;47.80
19359;DHT22;9815;52.334;20.890;2023-04-10T15:51:11;16.10;50.00
19359;DHT22;9815;52.334;20.890;2023-04-10T15:53:40;16.10;48.00
19359;DHT22;9815;52.334;20.890;2023-04-10T15:56:08;16.20;48.10
19359;DHT22;9815;52.334;20.890;2023-04-10T15:58:36;16.20;51.20
19359;DHT22;9815;52.334;20.890;2023-04-10T16:01:05;16.20;50.30
19359;DHT22;9815;52.334;20.890;2023-04-10T16:03:33;16.30;48.00
19359;DHT22;9815;52.334;20.890;2023-04-10T16:06:02;16.40;44.10
19359;DHT22;9815;52.334;20.890;2023-04-10T16:08:30;16.40;43.00
19359;DHT22;9815;52.334;20.890;2023-04-10T16:10:59;16.60;41.10